createdAt,value
2018-03-21T00:00:03.654Z,62.30
2018-03-21T00:02:29.854Z,63.30
2018-03-21T00:04:57.548Z,61.50
2018-03-21T00:07:23.743Z,61.40
2018-03-21T00:09:51.173Z,64.30
2018-03-21T00:12:18.768Z,62.90
2018-03-21T00:14:45.719Z,61.80
2018-03-21T00:17:12.156Z,61.80
2018-03-21T00:19:40.489Z,64.90
2018-03-21T00:22:07.854Z,64.90
2018-03-21T00:24:34.188Z,64.80
2018-03-21T00:27:01.735Z,65.60
2018-03-21T00:29:28.683Z,64.70
2018-03-21T00:31:55.702Z,64.60
2018-03-21T00:34:23.046Z,65.10
2018-03-21T00:36:49.464Z,65.00
2018-03-21T00:39:16.181Z,64.60
2018-03-21T00:41:43.122Z,65.60
2018-03-21T00:44:10.533Z,65.90
2018-03-21T00:46:38.527Z,65.60
2018-03-21T00:49:06.224Z,65.70
2018-03-21T00:51:33.809Z,66.10
2018-03-21T00:54:00.215Z,66.00
2018-03-21T00:56:27.259Z,65.50
2018-03-21T00:58:53.544Z,65.50
2018-03-21T01:01:19.919Z,65.40
2018-03-21T01:03:47.898Z,65.40
2018-03-21T01:06:14.127Z,65.30
2018-03-21T01:08:40.358Z,64.90
2018-03-21T01:11:07.920Z,64.50
2018-03-21T01:13:34.688Z,65.00
2018-03-21T01:16:01.256Z,65.40
2018-03-21T01:18:28.824Z,65.10
2018-03-21T01:20:56.115Z,65.30
2018-03-21T01:23:22.342Z,65.10
2018-03-21T01:25:48.583Z,64.50
2018-03-21T01:28:15.531Z,64.60
2018-03-21T01:30:42.309Z,65.40
2018-03-21T01:33:09.511Z,64.10
2018-03-21T01:35:36.053Z,64.10
2018-03-21T01:38:03.222Z,64.10
2018-03-21T01:40:29.433Z,64.00
2018-03-21T01:42:55.654Z,63.30
2018-03-21T01:45:21.856Z,62.40
2018-03-21T01:47:48.729Z,62.50
2018-03-21T01:50:16.118Z,62.80
2018-03-21T01:52:42.909Z,62.70
2018-03-21T01:55:09.651Z,62.70
2018-03-21T01:57:35.854Z,62.30
2018-03-21T02:00:02.085Z,62.00
2018-03-21T02:02:29.428Z,62.10
2018-03-21T02:04:56.945Z,61.40
2018-03-21T02:07:24.436Z,61.40
2018-03-21T02:09:51.375Z,61.20
2018-03-21T02:12:18.895Z,60.60
2018-03-21T02:14:45.123Z,60.60
2018-03-21T02:17:11.647Z,59.70
2018-03-21T02:19:39.231Z,59.80
2018-03-21T02:22:06.647Z,59.80
2018-03-21T02:24:32.847Z,59.60
2018-03-21T02:27:00.050Z,59.80
2018-03-21T02:29:27.702Z,59.00
2018-03-21T02:31:54.788Z,58.90
2018-03-21T02:34:21.035Z,58.80
2018-03-21T02:36:48.074Z,58.40
2018-03-21T02:39:15.275Z,58.20
2018-03-21T02:41:41.895Z,58.20
2018-03-21T02:44:08.142Z,58.00
2018-03-21T02:46:35.010Z,58.10
2018-03-21T02:49:02.224Z,58.00
2018-03-21T02:51:29.041Z,57.60
2018-03-21T02:53:56.807Z,57.00
2018-03-21T02:56:22.995Z,57.10
2018-03-21T02:58:49.209Z,57.10
2018-03-21T03:01:15.718Z,57.10
2018-03-21T03:03:41.927Z,56.80
2018-03-21T03:06:08.792Z,56.10
2018-03-21T03:08:35.289Z,56.00
2018-03-21T03:11:02.315Z,55.50
2018-03-21T03:13:29.766Z,55.50
2018-03-21T03:15:55.962Z,55.40
2018-03-21T03:18:22.673Z,54.80
2018-03-21T03:20:49.182Z,54.10
2018-03-21T03:23:16.744Z,54.60
2018-03-21T03:25:42.932Z,54.60
2018-03-21T03:28:09.721Z,54.50
2018-03-21T03:30:37.761Z,54.10
2018-03-21T03:33:04.031Z,54.10
2018-03-21T03:35:30.797Z,54.30
2018-03-21T03:37:56.999Z,54.40
2018-03-21T03:40:23.637Z,54.40
2018-03-21T03:42:50.986Z,54.80
2018-03-21T03:45:17.892Z,54.70
2018-03-21T03:47:45.529Z,54.70
2018-03-21T03:50:13.378Z,54.70
2018-03-21T03:52:39.844Z,54.70
2018-03-21T03:55:06.027Z,54.90
2018-03-21T03:57:32.214Z,55.10
2018-03-21T03:59:58.861Z,55.20
2018-03-21T04:02:26.737Z,55.50
2018-03-21T04:04:53.815Z,55.50
2018-03-21T04:07:20.363Z,55.50
2018-03-21T04:09:48.541Z,55.60
2018-03-21T04:12:15.560Z,55.70
2018-03-21T04:14:41.871Z,55.70
2018-03-21T04:17:09.015Z,55.70
2018-03-21T04:19:36.057Z,55.50
2018-03-21T04:22:03.043Z,55.80
2018-03-21T04:24:29.263Z,55.70
2018-03-21T04:26:55.715Z,55.90
2018-03-21T04:29:22.402Z,55.90
2018-03-21T04:31:50.150Z,55.90
2018-03-21T04:34:17.326Z,55.90
2018-03-21T04:36:45.113Z,55.90
2018-03-21T04:39:11.330Z,55.90
2018-03-21T04:41:37.559Z,55.90
2018-03-21T04:44:04.409Z,56.10
2018-03-21T04:46:31.467Z,56.70
2018-03-21T04:48:58.417Z,56.70
2018-03-21T04:51:24.647Z,56.40
2018-03-21T04:53:51.450Z,56.30
2018-03-21T04:56:18.386Z,56.00
2018-03-21T04:58:45.621Z,56.30
2018-03-21T05:01:12.582Z,56.30
2018-03-21T05:03:39.933Z,56.90
2018-03-21T05:06:07.645Z,57.30
2018-03-21T05:08:35.262Z,57.30
2018-03-21T05:11:02.207Z,57.80
2018-03-21T05:13:29.384Z,57.60
2018-03-21T05:15:56.436Z,57.80
2018-03-21T05:18:23.879Z,57.80
2018-03-21T05:20:50.258Z,57.80
2018-03-21T05:23:16.471Z,58.00
2018-03-21T05:25:43.190Z,58.40
2018-03-21T05:28:09.504Z,59.20
2018-03-21T05:30:35.746Z,59.90
2018-03-21T05:33:02.066Z,60.50
2018-03-21T05:35:30.377Z,60.80
2018-03-21T05:37:57.366Z,61.50
2018-03-21T05:40:24.410Z,61.30
2018-03-21T05:42:51.339Z,61.40
2018-03-21T05:45:17.550Z,61.40
2018-03-21T05:47:44.157Z,61.60
2018-03-21T05:50:11.482Z,62.60
2018-03-21T05:52:37.807Z,62.60
2018-03-21T05:55:04.970Z,63.20
2018-03-21T05:57:32.011Z,63.60
2018-03-21T05:59:58.661Z,63.60
2018-03-21T06:02:25.751Z,63.80
2018-03-21T06:04:52.519Z,63.70
2018-03-21T06:07:20.670Z,63.80
2018-03-21T06:09:46.900Z,63.80
2018-03-21T06:12:13.330Z,63.70
2018-03-21T06:14:40.536Z,63.70
2018-03-21T06:17:07.630Z,63.50
2018-03-21T06:19:33.883Z,63.50
2018-03-21T06:22:00.843Z,63.60
2018-03-21T06:24:27.129Z,63.70
2018-03-21T06:26:54.041Z,64.40
2018-03-21T06:29:20.440Z,63.50
2018-03-21T06:31:47.059Z,63.80
2018-03-21T06:34:15.080Z,64.30
2018-03-21T06:36:41.834Z,64.30
2018-03-21T06:39:08.440Z,63.90
2018-03-21T06:41:35.528Z,64.40
2018-03-21T06:44:01.714Z,64.30
2018-03-21T06:46:28.464Z,64.40
2018-03-21T06:48:55.656Z,64.00
2018-03-21T06:51:21.851Z,63.40
2018-03-21T06:53:48.443Z,63.20
2018-03-21T06:56:15.475Z,61.90
2018-03-21T06:58:41.775Z,61.90
2018-03-21T07:01:08.050Z,60.90
2018-03-21T07:03:35.069Z,59.40
2018-03-21T07:06:01.824Z,59.30
2018-03-21T07:08:28.542Z,58.80
2018-03-21T07:10:55.890Z,58.60
2018-03-21T07:13:22.964Z,57.40
2018-03-21T07:16:02.031Z,57.40
2018-03-21T07:18:28.365Z,57.60
2018-03-21T07:20:54.704Z,56.80
2018-03-21T07:23:21.076Z,55.70
2018-03-21T07:25:49.253Z,54.20
2018-03-21T07:28:16.367Z,53.40
2018-03-21T07:30:42.571Z,53.50
2018-03-21T07:33:09.361Z,51.80
2018-03-21T07:35:36.266Z,51.10
2018-03-21T07:38:03.432Z,49.10
2018-03-21T07:40:30.051Z,49.10
2018-03-21T07:42:56.780Z,49.00
2018-03-21T07:45:23.370Z,48.80
2018-03-21T07:47:50.458Z,47.10
2018-03-21T07:50:16.733Z,47.10
2018-03-21T07:52:42.991Z,48.10
2018-03-21T07:55:09.210Z,47.50
2018-03-21T07:57:35.434Z,47.70
2018-03-21T08:00:02.436Z,47.20
2018-03-21T08:02:28.624Z,46.70
2018-03-21T08:04:55.613Z,45.60
2018-03-21T08:07:22.449Z,45.40
2018-03-21T08:09:48.640Z,48.30
2018-03-21T08:12:15.593Z,45.40
2018-03-21T08:14:42.556Z,44.00
2018-03-21T08:17:08.753Z,43.90
2018-03-21T08:19:35.741Z,41.50
2018-03-21T08:22:02.079Z,41.50
2018-03-21T08:24:28.896Z,41.10
2018-03-21T08:26:55.118Z,41.10
2018-03-21T08:29:21.953Z,40.80
2018-03-21T08:31:48.920Z,41.00
2018-03-21T08:34:15.266Z,40.40
2018-03-21T08:36:41.599Z,39.20
2018-03-21T08:39:08.714Z,39.10
2018-03-21T08:41:36.964Z,39.20
2018-03-21T08:44:03.504Z,38.40
2018-03-21T08:46:31.248Z,37.80
2018-03-21T08:48:58.272Z,38.40
2018-03-21T08:51:25.304Z,38.40
2018-03-21T08:53:52.150Z,39.20
2018-03-21T08:56:18.868Z,38.30
2018-03-21T08:58:46.637Z,38.50
2018-03-21T09:01:14.591Z,38.00
2018-03-21T09:03:41.610Z,37.20
2018-03-21T09:06:07.803Z,37.20
2018-03-21T09:08:34.765Z,34.80
2018-03-21T09:11:01.760Z,35.60
2018-03-21T09:13:28.354Z,35.50
2018-03-21T09:15:54.851Z,35.30
2018-03-21T09:18:21.571Z,35.60
2018-03-21T09:20:48.075Z,34.20
2018-03-21T09:23:14.811Z,34.80
2018-03-21T09:25:41.315Z,35.10
2018-03-21T09:28:07.552Z,33.20
2018-03-21T09:30:34.784Z,33.20
2018-03-21T09:33:01.090Z,33.40
2018-03-21T09:35:27.712Z,33.70
2018-03-21T09:37:54.513Z,35.10
2018-03-21T09:40:21.109Z,34.80
2018-03-21T09:42:48.546Z,36.20
2018-03-21T09:45:16.725Z,36.40
2018-03-21T09:47:43.751Z,36.30
2018-03-21T09:50:11.146Z,36.20
2018-03-21T09:52:38.800Z,36.20
2018-03-21T09:55:06.404Z,36.60
2018-03-21T09:57:34.197Z,36.50
2018-03-21T10:00:00.383Z,36.60
2018-03-21T10:02:27.906Z,37.00
2018-03-21T10:04:54.136Z,36.60
2018-03-21T10:07:20.584Z,37.20
2018-03-21T10:09:47.331Z,37.30
2018-03-21T10:12:14.123Z,37.20
2018-03-21T10:14:40.498Z,37.30
2018-03-21T10:17:07.512Z,37.80
2018-03-21T10:19:35.125Z,38.30
2018-03-21T10:22:01.868Z,38.30
2018-03-21T10:24:28.611Z,37.50
2018-03-21T10:26:55.102Z,36.70
2018-03-21T10:29:22.584Z,35.60
2018-03-21T10:31:50.637Z,34.90
2018-03-21T10:34:17.435Z,34.90
2018-03-21T10:36:44.402Z,35.00
2018-03-21T10:39:11.914Z,34.40
2018-03-21T10:41:38.420Z,34.30
2018-03-21T10:44:04.957Z,34.30
2018-03-21T10:46:31.172Z,32.70
2018-03-21T10:48:57.651Z,32.50
2018-03-21T10:51:24.731Z,32.50
2018-03-21T10:53:52.410Z,32.50
2018-03-21T10:56:20.210Z,33.00
2018-03-21T10:58:47.873Z,32.60
2018-03-21T11:01:20.744Z,32.50
2018-03-21T11:03:53.529Z,32.90
2018-03-21T11:06:19.730Z,32.30
2018-03-21T11:08:46.078Z,32.10
2018-03-21T11:11:12.673Z,33.20
2018-03-21T11:13:39.660Z,35.00
2018-03-21T11:16:06.569Z,35.00
2018-03-21T11:18:33.757Z,36.40
2018-03-21T11:21:00.472Z,36.30
2018-03-21T11:23:27.509Z,37.30
2018-03-21T11:25:55.302Z,38.90
2018-03-21T11:28:21.508Z,38.90
2018-03-21T11:30:49.217Z,37.60
2018-03-21T11:33:16.205Z,37.50
2018-03-21T11:35:43.163Z,35.70
2018-03-21T11:38:10.109Z,37.50
2018-03-21T11:40:36.817Z,37.50
2018-03-21T11:43:03.854Z,35.20
2018-03-21T11:45:30.156Z,35.20
2018-03-21T11:47:56.385Z,35.80
2018-03-21T11:50:23.209Z,36.10
2018-03-21T11:52:50.169Z,36.40
2018-03-21T11:55:17.018Z,36.00
2018-03-21T11:57:43.206Z,35.90
2018-03-21T12:00:10.377Z,35.60
2018-03-21T12:02:37.171Z,36.50
2018-03-21T12:05:03.914Z,34.30
2018-03-21T12:07:31.651Z,34.00
2018-03-21T12:09:58.365Z,34.80
2018-03-21T12:12:24.828Z,35.60
2018-03-21T12:14:51.822Z,36.00
2018-03-21T12:17:18.341Z,35.90
2018-03-21T12:19:46.301Z,33.40
2018-03-21T12:22:13.518Z,32.40
2018-03-21T12:24:41.498Z,31.60
2018-03-21T12:27:08.289Z,31.60
2018-03-21T12:29:34.477Z,31.90
2018-03-21T12:32:01.552Z,31.50
2018-03-21T12:34:27.846Z,32.00
2018-03-21T12:36:54.042Z,32.60
2018-03-21T12:39:20.370Z,31.00
2018-03-21T12:41:47.361Z,31.70
2018-03-21T12:44:14.315Z,32.10
2018-03-21T12:46:42.403Z,31.60
2018-03-21T12:49:09.577Z,32.30
2018-03-21T12:51:36.032Z,32.30
2018-03-21T12:54:03.611Z,31.90
2018-03-21T12:56:30.585Z,32.40
2018-03-21T12:58:57.734Z,32.60
2018-03-21T13:01:24.842Z,32.60
2018-03-21T13:03:52.659Z,32.60
2018-03-21T13:06:20.339Z,32.20
2018-03-21T13:08:46.544Z,32.20
2018-03-21T13:11:12.857Z,32.60
2018-03-21T13:13:40.496Z,32.00
2018-03-21T13:16:07.751Z,32.00
2018-03-21T13:18:34.363Z,32.30
2018-03-21T13:21:01.363Z,31.40
2018-03-21T13:23:28.300Z,31.30
2018-03-21T13:25:55.282Z,31.70
2018-03-21T13:28:21.507Z,31.70
2018-03-21T13:30:48.164Z,31.00
2018-03-21T13:33:15.461Z,31.80
2018-03-21T13:35:42.383Z,30.80
2018-03-21T13:38:09.110Z,30.80
2018-03-21T13:40:35.498Z,30.00
2018-03-21T13:43:02.583Z,30.50
2018-03-21T13:45:28.860Z,30.40
2018-03-21T13:47:56.527Z,29.80
2018-03-21T13:50:24.190Z,30.00
2018-03-21T13:52:50.695Z,30.00
2018-03-21T13:55:18.009Z,28.80
2018-03-21T13:57:44.353Z,28.70
2018-03-21T14:00:11.064Z,29.40
2018-03-21T14:02:37.267Z,29.70
2018-03-21T14:05:04.247Z,29.10
2018-03-21T14:07:31.791Z,29.10
2018-03-21T14:09:58.097Z,28.30
2018-03-21T14:12:25.204Z,28.10
2018-03-21T14:14:51.422Z,28.10
2018-03-21T14:17:17.932Z,27.20
2018-03-21T14:19:44.338Z,27.30
2018-03-21T14:22:11.355Z,27.60
2018-03-21T14:24:37.723Z,27.50
2018-03-21T14:27:04.695Z,27.10
2018-03-21T14:29:31.589Z,27.10
2018-03-21T14:31:59.564Z,26.60
2018-03-21T14:34:25.746Z,26.60
2018-03-21T14:36:51.954Z,26.70
2018-03-21T14:39:18.395Z,27.40
2018-03-21T14:41:45.748Z,27.20
2018-03-21T14:44:12.858Z,25.90
2018-03-21T14:46:39.840Z,25.70
2018-03-21T14:49:06.184Z,25.70
2018-03-21T14:51:32.393Z,26.10
2018-03-21T14:53:58.961Z,26.00
2018-03-21T14:56:26.078Z,25.50
2018-03-21T14:58:52.952Z,25.40
2018-03-21T15:01:19.154Z,25.00
2018-03-21T15:03:45.641Z,24.20
2018-03-21T15:06:11.911Z,24.20
2018-03-21T15:08:38.094Z,24.40
2018-03-21T15:11:05.310Z,24.80
2018-03-21T15:13:31.652Z,24.60
2018-03-21T15:15:58.373Z,24.60
2018-03-21T15:18:24.598Z,24.70
2018-03-21T15:20:50.798Z,25.00
2018-03-21T15:23:17.560Z,24.90
2018-03-21T15:25:44.109Z,24.30
2018-03-21T15:28:11.124Z,21.60
2018-03-21T15:30:37.402Z,21.60
2018-03-21T15:33:04.193Z,21.40
2018-03-21T15:35:31.685Z,22.60
2018-03-21T15:37:58.458Z,22.60
2018-03-21T15:40:25.365Z,22.70
2018-03-21T15:42:51.600Z,21.30
2018-03-21T15:45:18.452Z,21.70
2018-03-21T15:47:44.643Z,23.20
2018-03-21T15:50:11.795Z,24.40
2018-03-21T15:52:38.936Z,23.80
2018-03-21T15:55:05.988Z,23.90
2018-03-21T15:57:32.267Z,23.80
2018-03-21T15:59:59.023Z,23.30
2018-03-21T16:02:26.575Z,24.50
2018-03-21T16:04:53.085Z,24.50
2018-03-21T16:07:20.326Z,24.50
2018-03-21T16:09:47.369Z,24.40
2018-03-21T16:12:13.610Z,24.40
2018-03-21T16:14:40.439Z,24.50
2018-03-21T16:17:08.437Z,24.30
2018-03-21T16:19:35.543Z,24.30
2018-03-21T16:22:01.801Z,24.00
2018-03-21T16:24:28.008Z,24.10
2018-03-21T16:26:55.271Z,23.60
2018-03-21T16:29:21.492Z,24.00
2018-03-21T16:31:48.423Z,23.40
2018-03-21T16:34:14.831Z,23.10
2018-03-21T16:36:41.152Z,23.50
2018-03-21T16:39:08.698Z,24.30
2018-03-21T16:41:35.724Z,24.40
2018-03-21T16:44:02.046Z,24.40
2018-03-21T16:46:28.326Z,24.70
2018-03-21T16:48:55.316Z,24.80
2018-03-21T16:51:21.937Z,24.80
2018-03-21T16:53:49.466Z,25.10
2018-03-21T16:56:16.530Z,25.50
2018-03-21T16:58:43.265Z,25.40
2018-03-21T17:01:10.033Z,25.60
2018-03-21T17:03:36.286Z,25.90
2018-03-21T17:06:03.166Z,26.60
2018-03-21T17:08:31.134Z,27.00
2018-03-21T17:10:58.200Z,26.50
2018-03-21T17:13:25.067Z,26.50
2018-03-21T17:15:51.275Z,26.40
2018-03-21T17:18:17.519Z,26.30
2018-03-21T17:20:44.395Z,26.30
2018-03-21T17:23:11.235Z,26.30
2018-03-21T17:25:37.490Z,26.60
2018-03-21T17:28:04.750Z,26.50
2018-03-21T17:30:30.992Z,26.50
2018-03-21T17:32:57.351Z,26.50
2018-03-21T17:35:23.665Z,26.80
2018-03-21T17:37:50.122Z,26.50
2018-03-21T17:40:16.774Z,26.40
2018-03-21T17:42:43.784Z,26.60
2018-03-21T17:45:10.704Z,26.60
2018-03-21T17:47:37.975Z,26.90
2018-03-21T17:50:04.999Z,26.80
2018-03-21T17:52:31.890Z,26.70
2018-03-21T17:54:58.196Z,26.80
2018-03-21T17:57:24.927Z,26.80
2018-03-21T17:59:52.213Z,27.10
2018-03-21T18:02:19.267Z,27.20
2018-03-21T18:04:45.483Z,27.10
2018-03-21T18:07:12.218Z,27.30
2018-03-21T18:09:38.963Z,27.40
2018-03-21T18:12:05.766Z,27.30
2018-03-21T18:14:32.520Z,27.40
2018-03-21T18:16:58.754Z,27.50
2018-03-21T18:19:24.986Z,28.80
2018-03-21T18:21:51.191Z,29.70
2018-03-21T18:24:17.641Z,29.00
2018-03-21T18:26:44.638Z,28.90
2018-03-21T18:29:10.893Z,28.90
2018-03-21T18:31:37.134Z,28.80
2018-03-21T18:34:04.006Z,28.70
2018-03-21T18:36:30.827Z,29.00
2018-03-21T18:38:57.885Z,30.70
2018-03-21T18:41:24.756Z,30.70
2018-03-21T18:43:51.004Z,32.10
2018-03-21T18:46:17.984Z,33.40
2018-03-21T18:48:44.782Z,33.40
2018-03-21T18:51:11.851Z,36.00
2018-03-21T18:53:38.214Z,35.90
2018-03-21T18:56:05.108Z,36.30
2018-03-21T18:58:32.200Z,37.50
2018-03-21T19:00:59.330Z,37.50
2018-03-21T19:03:26.398Z,37.30
2018-03-21T19:05:52.687Z,37.30
2018-03-21T19:08:20.343Z,37.10
2018-03-21T19:10:47.865Z,37.00
2018-03-21T19:13:20.145Z,36.60
2018-03-21T19:15:40.358Z,36.70
2018-03-21T19:18:07.378Z,36.40
2018-03-21T19:20:33.636Z,36.40
2018-03-21T19:23:00.624Z,36.50
2018-03-21T19:25:26.894Z,36.50
2018-03-21T19:27:53.728Z,36.20
2018-03-21T19:30:20.647Z,37.80
2018-03-21T19:32:47.512Z,38.00
2018-03-21T19:35:14.148Z,37.50
2018-03-21T19:37:40.421Z,37.80
2018-03-21T19:40:07.660Z,38.90
2018-03-21T19:42:35.685Z,36.40
2018-03-21T19:45:01.964Z,36.40
2018-03-21T19:47:29.113Z,36.40
2018-03-21T19:49:56.720Z,38.60
2018-03-21T19:52:23.035Z,38.60
2018-03-21T19:54:49.262Z,37.20
2018-03-21T19:57:16.678Z,36.30
2018-03-21T19:59:44.160Z,35.90
2018-03-21T20:02:11.746Z,35.70
2018-03-21T20:04:38.873Z,37.20
2018-03-21T20:07:05.260Z,37.20
2018-03-21T20:09:31.639Z,36.90
2018-03-21T20:11:58.254Z,36.30
2018-03-21T20:14:25.323Z,35.70
2018-03-21T20:16:51.908Z,36.20
2018-03-21T20:19:19.929Z,36.50
2018-03-21T20:21:46.685Z,36.50
2018-03-21T20:24:12.989Z,37.30
2018-03-21T20:26:39.300Z,39.00
2018-03-21T20:29:06.592Z,43.00
2018-03-21T20:31:33.346Z,42.90
2018-03-21T20:34:00.904Z,44.40
2018-03-21T20:36:28.678Z,44.60
2018-03-21T20:38:54.936Z,44.60
2018-03-21T20:41:21.146Z,44.10
2018-03-21T20:43:48.415Z,43.70
2018-03-21T20:46:15.852Z,43.70
2018-03-21T20:48:43.244Z,43.60
2018-03-21T20:51:10.652Z,43.40
2018-03-21T20:53:37.320Z,43.40
2018-03-21T20:56:04.537Z,43.40
2018-03-21T20:58:32.226Z,43.40
2018-03-21T21:00:59.196Z,42.90
2018-03-21T21:03:27.099Z,42.70
2018-03-21T21:05:54.125Z,42.30
2018-03-21T21:08:20.751Z,42.40
2018-03-21T21:10:47.098Z,42.50
2018-03-21T21:13:14.772Z,41.30
2018-03-21T21:15:41.402Z,41.30
2018-03-21T21:18:08.654Z,41.10
2018-03-21T21:20:35.736Z,41.00
2018-03-21T21:23:02.316Z,41.20
2018-03-21T21:25:29.240Z,41.00
2018-03-21T21:27:55.778Z,41.20
2018-03-21T21:30:23.001Z,40.00
2018-03-21T21:32:50.070Z,40.00
2018-03-21T21:35:17.676Z,39.80
2018-03-21T21:37:44.475Z,39.80
2018-03-21T21:40:10.919Z,40.00
2018-03-21T21:42:38.585Z,39.50
2018-03-21T21:45:05.140Z,39.50
2018-03-21T21:47:31.920Z,39.80
2018-03-21T21:49:58.885Z,39.90
2018-03-21T21:52:26.349Z,40.20
2018-03-21T21:54:53.934Z,40.00
2018-03-21T21:57:20.770Z,39.90
2018-03-21T21:59:48.325Z,40.20
2018-03-21T22:02:14.631Z,40.20
2018-03-21T22:04:40.992Z,40.90
2018-03-21T22:07:07.223Z,41.10
2018-03-21T22:09:34.076Z,40.40
2018-03-21T22:12:00.835Z,40.10
2018-03-21T22:14:27.858Z,40.80
2018-03-21T22:16:54.171Z,40.80
2018-03-21T22:19:21.038Z,40.70
2018-03-21T22:21:47.321Z,40.90
2018-03-21T22:24:15.128Z,41.50
2018-03-21T22:26:42.791Z,41.10
2018-03-21T22:29:09.623Z,41.10
2018-03-21T22:31:35.837Z,41.20
2018-03-21T22:34:03.313Z,41.00
2018-03-21T22:36:30.565Z,41.00
2018-03-21T22:38:57.323Z,40.70
2018-03-21T22:41:23.841Z,41.40
2018-03-21T22:43:52.018Z,41.00
2018-03-21T22:46:19.060Z,41.60
2018-03-21T22:48:45.347Z,41.60
2018-03-21T22:51:12.211Z,41.70
2018-03-21T22:53:39.635Z,41.50
2018-03-21T22:56:06.518Z,41.50
2018-03-21T22:58:32.759Z,41.60
2018-03-21T23:00:59.596Z,42.90
2018-03-21T23:03:26.041Z,42.40
2018-03-21T23:05:52.757Z,42.10
2018-03-21T23:08:19.313Z,43.00
2018-03-21T23:10:46.844Z,42.80
2018-03-21T23:13:13.821Z,42.80
2018-03-21T23:15:40.175Z,42.90
2018-03-21T23:18:07.418Z,43.70
2018-03-21T23:20:33.858Z,43.10
2018-03-21T23:23:01.480Z,42.50
2018-03-21T23:25:28.244Z,42.50
2018-03-21T23:27:55.008Z,42.90
2018-03-21T23:30:22.447Z,43.30
2018-03-21T23:32:51.001Z,43.60
2018-03-21T23:35:17.579Z,43.50
2018-03-21T23:37:44.570Z,42.60
2018-03-21T23:40:12.670Z,42.50
2018-03-21T23:42:39.297Z,42.50
2018-03-21T23:45:05.512Z,43.50
2018-03-21T23:47:32.374Z,44.10
2018-03-21T23:49:59.515Z,43.80
2018-03-21T23:52:26.585Z,44.00
2018-03-21T23:54:52.798Z,43.90
2018-03-21T23:57:19.616Z,44.20
2018-03-21T23:59:47.404Z,43.50
